Time;durP1;ratioP1;P1;durP2;ratioP2;P2;SDS_P1;SDS_P2;PMS_P1;PMS_P2;Temp;Humidity;BMP_temperature;BMP_pressure;BME280_temperature;BME280_humidity;BME280_pressure;Samples;Min_cycle;Max_cycle;Signal;HPM_P1;HPM_P2
2022/03/09 00:02:21;;;;;;;9.77;6.93;;;2.00;71.40;;;;;;4955630;28;20084;-69
2022/03/09 00:04:47;;;;;;;9.20;5.90;;;2.10;71.50;;;;;;4953613;28;20043;-69
2022/03/09 00:07:14;;;;;;;10.70;6.53;;;2.00;71.60;;;;;;4953086;28;20693;-70
2022/03/09 00:09:39;;;;;;;13.38;6.70;;;2.00;71.70;;;;;;4954455;28;20031;-69
2022/03/09 00:12:05;;;;;;;9.77;6.87;;;2.00;72.00;;;;;;4955459;28;20399;-69
2022/03/09 00:14:32;;;;;;;12.10;7.05;;;1.90;72.20;;;;;;4959680;28;20022;-69
2022/03/09 00:16:57;;;;;;;11.00;5.90;;;1.90;72.60;;;;;;4955608;28;20443;-70
2022/03/09 00:19:24;;;;;;;12.17;6.13;;;1.90;72.90;;;;;;4954359;28;20039;-70
2022/03/09 00:21:50;;;;;;;13.57;6.65;;;1.80;73.20;;;;;;4957864;28;20030;-70
2022/03/09 00:24:18;;;;;;;10.63;6.18;;;1.90;73.30;;;;;;4954030;28;20097;-69
2022/03/09 00:26:44;;;;;;;14.35;7.22;;;1.90;73.50;;;;;;4957043;28;20121;-72
2022/03/09 00:29:10;;;;;;;9.18;6.22;;;1.80;73.60;;;;;;4952881;28;20034;-69
2022/03/09 00:31:36;;;;;;;11.30;6.17;;;1.80;73.70;;;;;;4956134;28;20031;-70
2022/03/09 00:34:02;;;;;;;15.00;7.73;;;1.80;74.00;;;;;;4953061;28;20102;-70
2022/03/09 00:36:28;;;;;;;12.30;6.43;;;1.80;74.00;;;;;;4950981;28;20026;-70
2022/03/09 00:38:53;;;;;;;11.43;7.07;;;1.80;74.10;;;;;;4956207;28;20940;-69
2022/03/09 00:41:19;;;;;;;10.70;7.10;;;1.80;74.30;;;;;;4948993;28;20027;-73
2022/03/09 00:43:44;;;;;;;11.50;6.70;;;1.80;74.40;;;;;;4955031;28;20027;-70
2022/03/09 00:46:10;;;;;;;13.97;6.83;;;1.80;74.60;;;;;;4952296;28;20029;-70
2022/03/09 00:48:36;;;;;;;9.77;5.77;;;1.80;74.80;;;;;;4954993;28;20456;-70
2022/03/09 00:51:02;;;;;;;11.30;6.77;;;1.80;74.90;;;;;;4956384;28;20030;-71
2022/03/09 00:53:27;;;;;;;11.90;6.60;;;1.80;74.90;;;;;;4950360;28;20466;-71
2022/03/09 00:55:53;;;;;;;10.53;6.00;;;1.80;75.00;;;;;;4953433;28;20441;-69
2022/03/09 00:58:19;;;;;;;10.43;6.10;;;1.80;75.00;;;;;;4952950;28;20030;-70
2022/03/09 01:00:44;;;;;;;13.20;6.33;;;1.80;74.90;;;;;;4951238;28;20098;-70
2022/03/09 01:03:10;;;;;;;13.37;6.77;;;1.80;74.80;;;;;;4967606;28;20038;-69
2022/03/09 01:05:36;;;;;;;8.93;5.87;;;1.80;74.90;;;;;;4955995;28;20018;-71
2022/03/09 01:08:01;;;;;;;12.13;6.90;;;1.80;74.90;;;;;;4953582;28;20031;-70
2022/03/09 01:10:27;;;;;;;10.40;6.67;;;1.80;75.00;;;;;;4953177;28;20752;-69
2022/03/09 01:12:53;;;;;;;9.40;6.47;;;1.80;75.00;;;;;;4956593;28;20789;-70
2022/03/09 01:15:18;;;;;;;13.43;7.70;;;1.80;75.30;;;;;;4947387;28;20308;-69
2022/03/09 01:17:45;;;;;;;10.17;6.50;;;1.80;75.00;;;;;;4954540;28;20085;-70
2022/03/09 01:20:11;;;;;;;10.55;6.35;;;1.80;75.30;;;;;;4951716;28;20022;-70
2022/03/09 01:22:37;;;;;;;11.00;6.47;;;1.70;75.40;;;;;;4955842;28;20707;-69
2022/03/09 01:25:03;;;;;;;11.80;7.03;;;1.70;75.60;;;;;;4953903;28;20031;-69
2022/03/09 01:27:28;;;;;;;9.63;6.32;;;1.70;75.90;;;;;;4952428;28;20027;-69
2022/03/09 01:29:54;;;;;;;10.30;6.20;;;1.70;75.80;;;;;;4952242;28;20046;-70
2022/03/09 01:32:21;;;;;;;11.67;6.73;;;1.70;75.90;;;;;;4950474;28;20026;-70
2022/03/09 01:34:48;;;;;;;10.65;6.45;;;1.70;76.10;;;;;;4951575;28;20014;-69
2022/03/09 01:37:14;;;;;;;10.50;6.35;;;1.70;75.90;;;;;;4948012;28;20031;-69
2022/03/09 01:39:39;;;;;;;9.43;5.87;;;1.70;76.10;;;;;;4949722;28;20038;-70
2022/03/09 01:42:05;;;;;;;13.50;6.60;;;1.70;76.40;;;;;;4950872;28;20062;-69
2022/03/09 01:44:31;;;;;;;9.90;5.90;;;1.70;76.30;;;;;;4953546;28;20033;-69
2022/03/09 01:46:56;;;;;;;10.43;7.03;;;1.70;76.50;;;;;;4956401;28;20037;-69
2022/03/09 01:49:23;;;;;;;12.50;6.53;;;1.70;76.80;;;;;;4951779;28;20955;-69
2022/03/09 01:51:51;;;;;;;9.98;6.30;;;1.60;76.90;;;;;;4954505;28;20039;-69
2022/03/09 01:54:17;;;;;;;10.10;6.32;;;1.60;77.00;;;;;;4951877;28;20053;-70
2022/03/09 01:56:43;;;;;;;11.70;6.20;;;1.60;77.10;;;;;;4955554;28;21361;-69
2022/03/09 01:59:12;;;;;;;13.63;6.80;;;1.60;77.20;;;;;;4952236;28;20114;-69
2022/03/09 02:01:38;;;;;;;13.10;6.75;;;1.60;77.40;;;;;;4954869;28;20027;-69
2022/03/09 02:04:05;;;;;;;15.57;7.30;;;1.60;78.10;;;;;;4955210;28;20761;-69
2022/03/09 02:06:31;;;;;;;;;;;1.60;77.70;;;;;;4950701;28;20294;-69
2022/03/09 02:11:42;;;;;;;15.80;7.78;;;1.50;78.10;;;;;;4953003;28;20034;-70
2022/03/09 02:14:36;;;;;;;13.00;7.32;;;1.50;78.30;;;;;;4950632;28;20085;-70
2022/03/09 02:17:18;;;;;;;14.23;7.10;;;1.50;78.30;;;;;;4956566;28;20031;-69
2022/03/09 02:19:46;;;;;;;12.32;7.18;;;1.50;78.50;;;;;;4954041;28;20035;-69
2022/03/09 02:22:30;;;;;;;13.95;7.43;;;1.40;78.70;;;;;;4951397;28;20051;-70
2022/03/09 02:24:56;;;;;;;16.48;7.88;;;1.40;78.90;;;;;;4955427;28;20059;-69
2022/03/09 02:27:21;;;;;;;14.83;8.03;;;1.40;79.10;;;;;;4948865;28;20134;-69
2022/03/09 02:29:49;;;;;;;11.43;7.63;;;1.30;79.40;;;;;;4952470;28;20113;-69
2022/03/09 02:32:14;;;;;;;10.73;6.95;;;1.30;79.60;;;;;;4950294;28;20039;-69
2022/03/09 02:34:40;;;;;;;12.27;7.30;;;1.30;79.70;;;;;;4953828;28;20022;-69
2022/03/09 02:37:06;;;;;;;10.13;7.27;;;1.30;80.00;;;;;;4955430;28;20031;-69
2022/03/09 02:39:32;;;;;;;11.80;7.47;;;1.40;80.20;;;;;;4949699;28;20433;-70
2022/03/09 02:41:57;;;;;;;14.83;6.77;;;1.20;80.20;;;;;;4954485;28;20042;-69
2022/03/09 02:44:23;;;;;;;14.43;7.13;;;1.20;80.40;;;;;;4950969;28;21394;-69
2022/03/09 02:46:49;;;;;;;12.20;7.63;;;1.20;80.70;;;;;;4969744;28;20031;-69
2022/03/09 02:49:15;;;;;;;13.07;7.13;;;1.20;80.90;;;;;;4949111;28;20038;-69
2022/03/09 02:51:41;;;;;;;11.50;7.30;;;1.20;80.90;;;;;;4954489;28;20033;-69
2022/03/09 02:54:07;;;;;;;12.77;8.00;;;1.20;81.00;;;;;;4954581;28;20039;-69
2022/03/09 02:56:33;;;;;;;13.23;7.43;;;1.20;81.20;;;;;;4950482;28;20050;-69
2022/03/09 02:58:59;;;;;;;12.43;7.07;;;1.20;81.30;;;;;;4946011;28;20027;-69
2022/03/09 03:01:24;;;;;;;12.47;7.43;;;1.20;81.40;;;;;;4953022;28;20654;-69
2022/03/09 03:03:50;;;;;;;12.57;7.03;;;1.10;81.50;;;;;;4956208;28;20041;-69
2022/03/09 03:06:16;;;;;;;12.80;7.27;;;1.10;81.80;;;;;;4948127;28;20366;-69
2022/03/09 03:08:41;;;;;;;13.10;7.13;;;1.10;81.90;;;;;;4955684;28;20027;-69
2022/03/09 03:11:09;;;;;;;13.93;7.93;;;1.10;82.10;;;;;;4953914;28;20079;-69
2022/03/09 03:13:36;;;;;;;15.30;8.05;;;1.10;82.20;;;;;;4964382;28;20134;-69
2022/03/09 03:16:01;;;;;;;;;;;1.10;82.30;;;;;;4954872;28;20480;-69
2022/03/09 03:18:27;;;;;;;12.77;7.25;;;1.10;82.30;;;;;;4947860;28;19917;-70
2022/03/09 03:20:54;;;;;;;14.67;7.87;;;1.10;82.40;;;;;;4953691;28;21141;-70
2022/03/09 03:23:22;;;;;;;17.65;7.63;;;1.10;82.60;;;;;;4944864;28;20035;-70
2022/03/09 03:25:48;;;;;;;12.77;7.22;;;1.10;82.70;;;;;;4954320;28;20046;-70
2022/03/09 03:28:14;;;;;;;14.90;7.55;;;1.10;82.80;;;;;;4951180;28;20609;-69
2022/03/09 03:30:40;;;;;;;12.10;7.07;;;1.10;82.90;;;;;;4966213;28;20093;-70
2022/03/09 03:33:06;;;;;;;;;;;1.10;82.90;;;;;;4954478;28;20078;-70
2022/03/09 03:35:32;;;;;;;14.32;7.65;;;1.00;83.00;;;;;;4948655;28;19949;-70
2022/03/09 03:37:58;;;;;;;11.43;6.93;;;1.00;83.20;;;;;;4955526;28;20365;-71
2022/03/09 03:40:23;;;;;;;11.60;6.87;;;1.00;83.30;;;;;;4948552;28;20023;-70
2022/03/09 03:42:49;;;;;;;12.43;7.27;;;1.00;83.50;;;;;;4952808;28;20023;-69
2022/03/09 03:45:15;;;;;;;17.70;8.07;;;1.00;83.70;;;;;;4952200;28;20664;-69
2022/03/09 03:47:40;;;;;;;14.67;7.37;;;1.00;83.90;;;;;;4953085;28;20069;-70
2022/03/09 03:50:06;;;;;;;13.40;7.90;;;1.00;84.20;;;;;;4952235;28;20023;-69
2022/03/09 03:52:32;;;;;;;13.87;8.07;;;1.00;84.40;;;;;;4951480;28;20081;-69
2022/03/09 03:54:58;;;;;;;12.30;7.07;;;1.00;84.50;;;;;;4955369;28;20069;-69
2022/03/09 03:57:23;;;;;;;12.70;8.00;;;1.00;84.70;;;;;;4952531;28;20480;-69
2022/03/09 03:59:49;;;;;;;14.80;7.17;;;0.90;84.90;;;;;;4952293;28;20081;-70
2022/03/09 04:02:15;;;;;;;14.07;7.07;;;1.90;85.40;;;;;;4954578;28;20034;-69
2022/03/09 04:04:40;;;;;;;15.70;7.40;;;0.90;84.80;;;;;;4953034;28;20041;-71
2022/03/09 04:07:06;;;;;;;11.20;6.87;;;0.90;84.70;;;;;;4956590;28;20031;-69
2022/03/09 04:09:32;;;;;;;16.50;8.07;;;0.90;84.70;;;;;;4955245;28;20022;-69
2022/03/09 04:11:57;;;;;;;14.47;7.83;;;0.90;84.70;;;;;;4957075;28;20476;-69
2022/03/09 04:14:23;;;;;;;12.17;6.60;;;0.90;84.70;;;;;;4953069;28;20504;-69
2022/03/09 04:16:50;;;;;;;12.60;7.70;;;0.90;84.60;;;;;;4949527;28;20452;-69
2022/03/09 04:19:16;;;;;;;11.27;6.35;;;0.90;84.50;;;;;;4955511;28;20019;-69
2022/03/09 04:21:41;;;;;;;14.80;8.25;;;0.90;84.40;;;;;;4956455;28;20027;-69
2022/03/09 04:24:07;;;;;;;14.73;8.03;;;1.00;84.40;;;;;;4957621;28;20026;-68
2022/03/09 04:26:33;;;;;;;11.37;7.10;;;1.00;84.40;;;;;;4952524;28;20058;-69
2022/03/09 04:28:59;;;;;;;14.70;7.23;;;1.00;84.50;;;;;;4955993;28;20972;-69
2022/03/09 04:31:25;;;;;;;14.45;7.25;;;1.00;84.50;;;;;;4950957;28;20133;-69
2022/03/09 04:33:51;;;;;;;12.77;7.17;;;1.00;84.50;;;;;;4956744;28;20607;-69
2022/03/09 04:36:17;;;;;;;14.20;7.43;;;1.00;84.50;;;;;;4957020;28;20046;-69
2022/03/09 04:38:43;;;;;;;13.35;8.00;;;1.10;84.50;;;;;;4953679;28;20077;-69
2022/03/09 04:41:09;;;;;;;12.70;7.53;;;1.10;84.50;;;;;;4953455;28;20058;-69
2022/03/09 04:43:35;;;;;;;15.20;8.73;;;1.10;84.50;;;;;;4949741;28;20031;-69
2022/03/09 04:46:00;;;;;;;13.63;7.27;;;1.10;84.30;;;;;;4951447;28;20019;-70
2022/03/09 04:48:26;;;;;;;12.13;7.43;;;1.20;84.20;;;;;;4950555;28;20050;-69
2022/03/09 04:50:52;;;;;;;13.53;8.43;;;1.20;84.40;;;;;;4954241;28;20077;-69
2022/03/09 04:53:18;;;;;;;13.27;7.70;;;1.20;84.30;;;;;;4956690;28;20027;-70
2022/03/09 04:55:44;;;;;;;12.07;7.47;;;1.20;84.20;;;;;;4953524;28;20443;-69
2022/03/09 04:58:10;;;;;;;16.63;8.35;;;1.20;84.20;;;;;;4957173;28;20416;-70
2022/03/09 05:00:36;;;;;;;13.27;8.07;;;1.20;84.20;;;;;;4951782;28;20073;-69
2022/03/09 05:03:02;;;;;;;13.43;7.63;;;1.20;84.10;;;;;;4955456;28;20019;-69
2022/03/09 05:05:27;;;;;;;12.97;6.57;;;1.20;84.00;;;;;;4946666;28;20600;-70
2022/03/09 05:07:53;;;;;;;14.47;7.80;;;1.20;83.90;;;;;;4955057;28;20134;-70
2022/03/09 05:10:19;;;;;;;12.47;7.53;;;1.20;83.70;;;;;;4952984;28;20034;-70
2022/03/09 05:12:44;;;;;;;12.83;8.17;;;1.20;83.70;;;;;;4951967;28;20050;-70
2022/03/09 05:15:10;;;;;;;14.07;7.53;;;1.20;83.60;;;;;;4952246;28;20019;-70
2022/03/09 05:17:43;;;;;;;14.37;7.43;;;1.20;83.70;;;;;;4952620;28;20101;-69
2022/03/09 05:20:11;;;;;;;13.43;7.85;;;1.20;83.70;;;;;;4951724;28;20026;-69
2022/03/09 05:22:37;;;;;;;16.45;8.63;;;1.20;83.70;;;;;;4956175;28;20019;-69
2022/03/09 05:25:03;;;;;;;13.83;8.00;;;1.20;83.70;;;;;;4952458;28;20033;-70
2022/03/09 05:27:29;;;;;;;16.92;8.82;;;1.20;83.70;;;;;;4957957;28;20023;-69
2022/03/09 05:29:55;;;;;;;13.60;7.43;;;1.20;83.70;;;;;;4950052;28;20042;-70
2022/03/09 05:32:21;;;;;;;12.13;7.47;;;1.20;83.60;;;;;;4955275;28;20258;-70
2022/03/09 05:34:49;;;;;;;15.47;8.40;;;1.30;83.70;;;;;;4954486;28;20027;-69
2022/03/09 05:37:15;;;;;;;14.30;8.73;;;1.40;83.70;;;;;;4952174;28;20066;-70
2022/03/09 05:39:41;;;;;;;15.13;7.73;;;1.60;83.30;;;;;;4954608;28;20015;-70
2022/03/09 05:42:07;;;;;;;13.67;7.77;;;2.10;81.80;;;;;;4951648;28;20042;-71
2022/03/09 05:44:33;;;;;;;11.03;6.50;;;2.60;79.90;;;;;;4953446;28;20027;-69
2022/03/09 05:46:58;;;;;;;14.68;7.53;;;3.10;78.10;;;;;;4950118;28;20030;-71
2022/03/09 05:49:24;;;;;;;12.47;7.63;;;3.60;76.00;;;;;;4957274;28;20705;-70
2022/03/09 05:51:52;;;;;;;13.20;7.70;;;4.10;74.30;;;;;;4952946;28;20456;-69
2022/03/09 05:54:19;;;;;;;13.30;7.32;;;4.80;72.50;;;;;;4951354;28;20027;-70
2022/03/09 05:56:45;;;;;;;10.38;7.00;;;5.60;70.10;;;;;;4955058;28;20037;-70
2022/03/09 05:59:11;;;;;;;12.10;7.27;;;6.30;67.20;;;;;;4950496;28;20032;-70
2022/03/09 06:01:37;;;;;;;12.97;7.80;;;7.10;64.10;;;;;;4946737;28;20334;-70
2022/03/09 06:04:03;;;;;;;11.50;6.85;;;7.90;61.70;;;;;;4952430;28;20609;-70
2022/03/09 06:06:29;;;;;;;10.68;6.85;;;8.80;58.30;;;;;;4955021;28;20027;-70
2022/03/09 06:08:55;;;;;;;11.63;7.27;;;9.70;55.70;;;;;;4953497;28;20034;-70
2022/03/09 06:11:21;;;;;;;12.30;7.33;;;10.10;54.10;;;;;;4950499;28;21000;-70
2022/03/09 06:13:46;;;;;;;9.32;7.00;;;10.40;52.90;;;;;;4956108;28;20035;-70
2022/03/09 06:16:12;;;;;;;10.47;7.70;;;10.90;51.50;;;;;;4952095;28;20514;-70
2022/03/09 06:18:38;;;;;;;13.48;7.60;;;11.70;49.50;;;;;;4953984;28;20023;-70
2022/03/09 06:21:04;;;;;;;12.87;7.53;;;12.50;47.00;;;;;;4949163;28;20058;-70
2022/03/09 06:23:30;;;;;;;10.88;7.35;;;13.00;46.00;;;;;;4953408;28;20258;-70
2022/03/09 06:25:56;;;;;;;11.25;8.02;;;13.20;44.20;;;;;;4953705;28;20027;-71
2022/03/09 06:28:22;;;;;;;16.00;7.93;;;12.70;44.20;;;;;;4954310;28;20046;-70
2022/03/09 06:30:48;;;;;;;11.38;7.72;;;12.00;45.30;;;;;;4953913;28;20384;-70
2022/03/09 06:33:14;;;;;;;12.70;7.38;;;11.60;45.30;;;;;;4950706;28;20034;-68
2022/03/09 06:35:39;;;;;;;10.20;7.43;;;11.30;46.00;;;;;;4955804;28;20046;-70
2022/03/09 06:38:05;;;;;;;10.60;6.77;;;11.30;46.40;;;;;;4950713;28;20037;-70
2022/03/09 06:40:31;;;;;;;12.38;10.25;;;11.60;46.20;;;;;;4954827;28;20270;-70
2022/03/09 06:42:59;;;;;;;8.87;7.03;;;12.20;44.70;;;;;;4948082;28;20130;-70
2022/03/09 06:45:26;;;;;;;10.85;7.00;;;12.80;43.70;;;;;;4956033;28;20270;-70
2022/03/09 06:47:52;;;;;;;12.65;7.78;;;13.30;42.90;;;;;;4954908;28;20106;-70
2022/03/09 06:50:18;;;;;;;9.27;7.07;;;14.00;42.10;;;;;;4949591;28;20027;-71
2022/03/09 06:52:43;;;;;;;10.20;7.30;;;15.10;40.60;;;;;;4954966;28;20077;-70
2022/03/09 06:55:12;;;;;;;10.25;7.35;;;15.90;38.30;;;;;;4951174;28;20081;-70
2022/03/09 06:57:39;;;;;;;10.25;6.88;;;15.70;38.30;;;;;;4955300;28;20094;-70
2022/03/09 07:00:11;;;;;;;10.75;7.78;;;15.40;38.40;;;;;;4950123;28;20554;-70
2022/03/09 07:02:37;;;;;;;11.02;7.18;;;15.10;38.50;;;;;;4953165;28;20338;-70
2022/03/09 07:05:04;;;;;;;11.00;6.82;;;14.40;39.00;;;;;;4947587;28;20030;-70
2022/03/09 07:07:30;;;;;;;10.18;6.93;;;13.70;39.60;;;;;;4953070;28;20087;-70
2022/03/09 07:09:56;;;;;;;12.00;7.82;;;13.10;40.70;;;;;;4953447;28;20113;-70
2022/03/09 07:12:22;;;;;;;11.93;6.97;;;12.60;40.90;;;;;;4949382;28;20029;-70
2022/03/09 07:14:48;;;;;;;9.20;7.03;;;12.00;42.00;;;;;;4956079;28;20748;-70
2022/03/09 07:17:13;;;;;;;14.00;7.63;;;11.40;42.80;;;;;;4947356;28;20066;-70
2022/03/09 07:19:39;;;;;;;10.27;7.07;;;11.00;43.60;;;;;;4953671;28;20050;-70
2022/03/09 07:22:05;;;;;;;10.97;6.77;;;10.70;44.00;;;;;;4949410;28;20507;-70
2022/03/09 07:24:31;;;;;;;10.13;6.88;;;10.30;44.50;;;;;;4955508;28;20027;-70
2022/03/09 07:26:56;;;;;;;9.88;6.72;;;9.90;45.40;;;;;;4955357;28;20035;-71
2022/03/09 07:29:23;;;;;;;11.93;7.57;;;9.60;46.00;;;;;;4952545;28;20646;-70
2022/03/09 07:31:49;;;;;;;13.63;8.20;;;9.40;46.60;;;;;;4956087;28;20034;-69
2022/03/09 07:34:15;;;;;;;11.00;7.00;;;9.10;47.10;;;;;;4969138;28;20666;-70
2022/03/09 07:36:41;;;;;;;12.68;7.13;;;8.70;47.80;;;;;;4957109;28;20870;-70
2022/03/09 07:39:07;;;;;;;9.80;6.50;;;8.60;48.30;;;;;;4952981;28;20030;-70
2022/03/09 07:41:32;;;;;;;10.60;6.43;;;8.50;48.60;;;;;;4956631;28;20019;-70
2022/03/09 07:43:58;;;;;;;10.70;6.67;;;8.50;48.80;;;;;;4956637;28;20031;-70
2022/03/09 07:46:24;;;;;;;9.50;6.10;;;8.50;48.90;;;;;;4952894;28;20477;-70
2022/03/09 07:48:49;;;;;;;10.47;6.73;;;8.40;48.90;;;;;;4954477;28;20042;-70
2022/03/09 07:51:15;;;;;;;10.33;6.90;;;8.30;49.10;;;;;;4949403;28;20042;-69
2022/03/09 07:53:42;;;;;;;13.93;7.17;;;8.20;49.60;;;;;;4956886;28;20031;-70
2022/03/09 07:56:10;;;;;;;10.77;6.60;;;8.10;49.70;;;;;;4953983;28;20444;-70
2022/03/09 07:58:37;;;;;;;11.43;7.25;;;7.90;49.90;;;;;;4957407;28;20022;-70
2022/03/09 08:01:02;;;;;;;11.88;6.75;;;7.90;50.20;;;;;;4969060;28;20026;-70
2022/03/09 08:03:28;;;;;;;9.90;6.40;;;7.80;50.40;;;;;;4953957;28;20499;-70
2022/03/09 08:05:53;;;;;;;14.97;7.07;;;7.70;50.70;;;;;;4958020;28;20484;-70
2022/03/09 08:08:19;;;;;;;17.93;6.87;;;7.80;50.90;;;;;;4951786;28;20058;-70
2022/03/09 08:10:45;;;;;;;10.60;6.63;;;7.80;50.70;;;;;;4955314;28;20495;-70
2022/03/09 08:13:10;;;;;;;12.10;6.50;;;7.90;50.40;;;;;;4956912;28;20018;-70
2022/03/09 08:15:37;;;;;;;12.23;6.57;;;8.20;50.40;;;;;;4953406;28;20062;-69
2022/03/09 08:18:04;;;;;;;10.80;6.40;;;8.30;49.80;;;;;;4957970;28;20034;-70
2022/03/09 08:20:30;;;;;;;11.38;7.00;;;8.50;49.60;;;;;;4954221;28;20041;-70
2022/03/09 08:22:55;;;;;;;10.63;6.88;;;8.50;49.10;;;;;;4957885;28;20019;-69
2022/03/09 08:25:21;;;;;;;12.30;6.60;;;8.60;49.20;;;;;;4938710;28;20035;-70
2022/03/09 08:27:47;;;;;;;11.90;6.50;;;8.60;48.90;;;;;;4957933;28;20070;-70
2022/03/09 08:30:13;;;;;;;10.17;6.40;;;8.70;48.70;;;;;;4955312;28;20105;-69
2022/03/09 08:32:38;;;;;;;12.88;7.03;;;8.90;48.40;;;;;;4952755;28;20035;-70
2022/03/09 08:35:05;;;;;;;12.33;7.53;;;9.00;48.40;;;;;;4954856;28;20114;-70
2022/03/09 08:37:30;;;;;;;11.32;6.80;;;9.20;48.00;;;;;;4949334;28;20027;-70
2022/03/09 08:39:57;;;;;;;11.87;6.40;;;9.50;47.80;;;;;;4954778;28;20077;-70
2022/03/09 08:42:23;;;;;;;;;;;9.80;47.10;;;;;;4952735;28;20130;-70
2022/03/09 08:44:50;;;;;;;11.43;6.60;;;10.20;46.60;;;;;;4954513;28;20451;-70
2022/03/09 08:47:16;;;;;;;11.70;6.82;;;10.40;46.30;;;;;;5508690;23;20046;-70
2022/03/09 08:53:04;;;;;;;11.63;6.60;;;10.80;45.70;;;;;;4984716;28;20149;-70
2022/03/09 08:58:52;;;;;;;10.80;6.45;;;11.60;44.90;;;;;;4985385;28;20105;-70
2022/03/09 09:04:39;;;;;;;9.50;6.68;;;13.00;43.30;;;;;;4983272;28;20044;-70
2022/03/09 09:07:56;;;;;;;9.97;6.40;;;13.90;41.40;;;;;;4980785;28;20655;-71
2022/03/09 09:10:22;;;;;;;12.70;7.32;;;14.60;40.60;;;;;;4942483;28;20102;-70
2022/03/09 09:12:50;;;;;;;8.68;6.25;;;15.80;38.90;;;;;;4950785;28;20027;-71
2022/03/09 09:15:15;;;;;;;8.77;6.30;;;16.40;38.00;;;;;;4943873;28;20043;-71
2022/03/09 09:17:41;;;;;;;9.23;6.47;;;16.60;37.20;;;;;;4940228;28;20028;-71
2022/03/09 09:20:08;;;;;;;10.52;7.43;;;16.90;37.20;;;;;;4949045;28;20475;-71
2022/03/09 09:22:34;;;;;;;11.23;7.03;;;17.20;36.60;;;;;;4957738;28;20104;-71
2022/03/09 09:25:01;;;;;;;11.70;7.60;;;17.20;36.10;;;;;;4945297;28;20520;-71
2022/03/09 09:27:27;;;;;;;9.60;7.45;;;16.30;36.60;;;;;;4956325;28;20525;-70
2022/03/09 09:29:52;;;;;;;9.25;6.85;;;15.40;37.80;;;;;;4948376;28;20030;-71
2022/03/09 09:32:18;;;;;;;10.20;6.80;;;14.60;38.80;;;;;;4947872;28;20378;-70
2022/03/09 09:34:44;;;;;;;10.00;6.43;;;13.90;39.70;;;;;;4954538;28;20254;-70
2022/03/09 09:37:10;;;;;;;9.80;6.47;;;13.50;41.30;;;;;;4946950;28;20074;-70
2022/03/09 09:39:35;;;;;;;9.52;6.68;;;13.00;41.80;;;;;;4943864;28;20027;-70
2022/03/09 09:42:01;;;;;;;9.57;6.20;;;12.60;42.40;;;;;;4934754;28;20023;-70
2022/03/09 09:44:27;;;;;;;9.38;6.35;;;12.30;42.80;;;;;;4942132;28;20030;-70
2022/03/09 09:46:53;;;;;;;36.28;9.25;;;12.00;43.40;;;;;;4942996;28;20043;-70
2022/03/09 09:49:25;;;;;;;8.05;5.82;;;11.90;44.10;;;;;;4950968;28;20035;-70
2022/03/09 09:51:53;;;;;;;9.35;5.88;;;11.70;44.30;;;;;;4935354;28;20066;-70
2022/03/09 09:54:21;;;;;;;17.55;7.25;;;11.50;44.80;;;;;;4938745;28;20110;-70
2022/03/09 09:56:46;;;;;;;12.68;6.15;;;11.40;45.10;;;;;;4952227;28;20027;-70
2022/03/09 09:59:12;;;;;;;17.00;7.23;;;11.20;45.60;;;;;;4955189;28;20074;-69
2022/03/09 10:01:40;;;;;;;12.43;5.00;;;11.10;46.00;;;;;;4938702;28;20137;-70
2022/03/09 10:04:07;;;;;;;8.52;5.28;;;11.10;46.30;;;;;;4949954;28;20306;-70
2022/03/09 10:06:33;;;;;;;10.65;6.05;;;11.10;46.40;;;;;;4953735;28;20027;-70
2022/03/09 10:09:08;;;;;;;8.90;5.70;;;11.00;46.20;;;;;;4933891;28;20031;-70
2022/03/09 10:11:46;;;;;;;11.15;5.53;;;11.00;46.10;;;;;;4951774;28;20114;-69
2022/03/09 10:14:13;;;;;;;9.82;5.80;;;11.00;46.50;;;;;;4948829;28;20025;-69
2022/03/09 10:16:58;;;;;;;;;;;11.00;46.20;;;;;;4941605;28;20031;-70
2022/03/09 10:19:35;;;;;;;11.43;5.60;;;11.10;46.30;;;;;;4947438;28;19996;-70
2022/03/09 10:22:22;;;;;;;9.93;5.40;;;11.00;46.60;;;;;;4934484;28;20122;-70
2022/03/09 10:24:48;;;;;;;8.10;4.60;;;11.00;46.90;;;;;;4939648;28;20015;-70
2022/03/09 10:27:34;;;;;;;8.77;5.18;;;11.30;46.80;;;;;;4938362;28;20063;-70
2022/03/09 10:30:00;;;;;;;8.57;5.50;;;11.30;46.30;;;;;;4945827;28;20031;-70
2022/03/09 10:32:46;;;;;;;9.32;5.38;;;11.20;46.50;;;;;;4951660;28;20042;-70
2022/03/09 10:35:14;;;;;;;7.90;5.38;;;11.20;46.70;;;;;;4946679;28;20110;-70
2022/03/09 10:37:47;;;;;;;11.10;4.97;;;11.10;46.90;;;;;;4970242;28;20061;-69
2022/03/09 10:40:18;;;;;;;8.80;5.35;;;11.00;47.30;;;;;;4941632;28;20101;-69
2022/03/09 10:42:44;;;;;;;12.25;4.97;;;11.00;47.60;;;;;;4961636;28;20097;-70
2022/03/09 10:45:11;;;;;;;30.83;8.07;;;11.00;47.90;;;;;;4951290;28;20023;-70
2022/03/09 10:47:39;;;;;;;14.63;5.90;;;11.20;47.80;;;;;;4938595;28;20543;-70
2022/03/09 10:50:20;;;;;;;10.75;5.95;;;11.50;47.50;;;;;;4950601;28;20031;-70
2022/03/09 10:52:57;;;;;;;10.95;5.65;;;11.70;46.90;;;;;;4951018;28;20027;-70
2022/03/09 10:55:35;;;;;;;9.07;5.50;;;11.90;46.40;;;;;;4950766;28;20034;-70
2022/03/09 10:58:21;;;;;;;8.70;5.80;;;11.90;46.50;;;;;;4951973;28;20026;-70
2022/03/09 11:00:49;;;;;;;10.10;5.38;;;12.00;46.30;;;;;;4948130;28;20030;-70
2022/03/09 11:03:20;;;;;;;6.80;5.05;;;12.30;46.10;;;;;;4950707;28;20038;-70
2022/03/09 11:05:55;;;;;;;8.90;5.55;;;12.80;45.50;;;;;;4946620;28;20057;-70
2022/03/09 11:08:26;;;;;;;6.85;4.80;;;13.40;45.50;;;;;;4965490;28;20034;-70
2022/03/09 11:10:53;;;;;;;18.15;6.25;;;13.80;44.30;;;;;;4951704;28;20038;-70
2022/03/09 11:13:19;;;;;;;17.48;6.07;;;13.90;43.50;;;;;;4940090;28;20580;-71
2022/03/09 11:15:47;;;;;;;9.33;4.73;;;13.70;43.90;;;;;;4942416;28;20075;-70
2022/03/09 11:18:24;;;;;;;8.98;4.45;;;13.60;44.60;;;;;;4946983;28;20325;-70
2022/03/09 11:20:52;;;;;;;;;;;13.50;44.40;;;;;;4968139;28;20108;-70
2022/03/09 11:23:19;;;;;;;5.07;3.72;;;13.40;44.70;;;;;;4942618;28;19926;-70
2022/03/09 11:25:59;;;;;;;;;;;13.50;45.10;;;;;;4959339;28;20023;-70
2022/03/09 11:28:35;;;;;;;7.25;4.32;;;13.50;44.90;;;;;;4959205;28;20276;-70
2022/03/09 11:31:04;;;;;;;6.43;4.50;;;13.40;45.20;;;;;;4953566;28;20047;-70
2022/03/09 11:33:45;;;;;;;6.55;4.28;;;13.40;45.30;;;;;;4957247;28;20022;-70
2022/03/09 11:36:27;;;;;;;5.32;3.95;;;13.50;45.50;;;;;;4942302;28;20027;-70
2022/03/09 11:39:17;;;;;;;6.47;4.20;;;13.70;45.20;;;;;;4950845;28;20051;-70
2022/03/09 11:41:42;;;;;;;5.65;4.13;;;13.80;45.80;;;;;;4952993;28;20070;-70
2022/03/09 11:44:24;;;;;;;6.97;4.30;;;13.90;44.90;;;;;;4953388;28;20054;-70
2022/03/09 11:47:00;;;;;;;7.28;4.30;;;13.90;45.70;;;;;;4948603;28;20128;-70
2022/03/09 11:49:32;;;;;;;8.35;4.55;;;14.10;44.10;;;;;;4958437;28;20562;-70
2022/03/09 11:52:12;;;;;;;7.07;4.50;;;14.00;44.00;;;;;;4947813;28;20038;-70
2022/03/09 11:54:42;;;;;;;7.55;4.65;;;13.80;45.00;;;;;;4955385;28;20027;-69
2022/03/09 11:57:08;;;;;;;8.10;4.82;;;13.70;44.70;;;;;;4946489;28;20528;-70
2022/03/09 11:59:33;;;;;;;6.88;4.82;;;13.70;44.70;;;;;;4940353;28;20102;-70
2022/03/09 12:02:12;;;;;;;8.93;4.90;;;13.70;44.60;;;;;;4951913;28;20043;-69
2022/03/09 12:04:48;;;;;;;8.45;5.10;;;13.50;45.10;;;;;;4949159;28;20043;-70
2022/03/09 12:07:37;;;;;;;7.10;4.85;;;13.50;44.50;;;;;;4941280;28;20030;-70
2022/03/09 12:10:10;;;;;;;7.43;4.68;;;13.40;44.70;;;;;;4950976;28;20023;-70
2022/03/09 12:12:38;;;;;;;7.13;4.40;;;13.50;44.90;;;;;;4946832;28;20027;-70
2022/03/09 12:15:16;;;;;;;6.20;4.10;;;13.50;45.30;;;;;;4960124;28;20022;-70
2022/03/09 12:17:49;;;;;;;7.95;4.72;;;13.60;45.30;;;;;;4947859;28;20058;-70
2022/03/09 12:20:23;;;;;;;6.88;4.28;;;13.60;44.70;;;;;;4939652;28;20377;-70
2022/03/09 12:23:03;;;;;;;8.07;4.82;;;13.50;44.90;;;;;;4944232;28;20028;-70
2022/03/09 12:25:49;;;;;;;8.90;4.53;;;13.40;45.00;;;;;;4973888;28;20034;-70
2022/03/09 12:28:24;;;;;;;7.50;4.78;;;13.40;45.00;;;;;;4948282;28;20101;-70
2022/03/09 12:30:52;;;;;;;8.98;5.03;;;13.40;44.80;;;;;;4935515;28;20114;-70
2022/03/09 12:33:25;;;;;;;8.68;4.93;;;13.50;45.20;;;;;;4954238;28;20030;-68
2022/03/09 12:35:53;;;;;;;5.85;4.28;;;13.70;47.20;;;;;;4952581;28;20078;-67
2022/03/09 12:38:19;;;;;;;6.13;4.25;;;14.00;45.70;;;;;;4948157;28;20140;-66
2022/03/09 12:40:45;;;;;;;5.20;4.20;;;14.20;45.00;;;;;;4943293;28;20090;-69
2022/03/09 12:43:13;;;;;;;5.88;4.05;;;14.30;44.00;;;;;;4950967;28;20131;-68
2022/03/09 12:45:55;;;;;;;5.70;3.92;;;14.10;44.00;;;;;;4955152;28;20026;-68
2022/03/09 12:48:22;;;;;;;6.03;3.83;;;13.90;44.30;;;;;;4947942;28;20118;-69
2022/03/09 12:50:49;;;;;;;7.63;4.30;;;13.90;44.40;;;;;;4970647;28;20034;-68
2022/03/09 12:53:19;;;;;;;5.30;3.60;;;14.00;44.80;;;;;;4945488;28;20463;-69
2022/03/09 12:55:46;;;;;;;7.78;4.60;;;13.90;44.60;;;;;;4940680;28;20027;-69
2022/03/09 12:58:19;;;;;;;9.75;5.28;;;13.80;44.50;;;;;;4938064;28;20030;-69
2022/03/09 13:00:45;;;;;;;4.70;3.60;;;13.70;44.70;;;;;;4938852;28;20026;-69
2022/03/09 13:03:11;;;;;;;6.80;4.50;;;13.60;45.20;;;;;;4940254;28;20018;-68
2022/03/09 13:05:38;;;;;;;;;;;13.40;45.40;;;;;;4945440;28;20023;-68